Time;durP1;ratioP1;P1;durP2;ratioP2;P2;SDS_P1;SDS_P2;PMS_P1;PMS_P2;Temp;Humidity;BMP_temperature;BMP_pressure;BME280_temperature;BME280_humidity;BME280_pressure;Samples;Min_cycle;Max_cycle;Signal;HPM_P1;HPM_P2
2024/04/12 00:01:01;;;;;;;17.45;7.55;;;13.30;99.90;;;;;;5384418;26;19992;-69
2024/04/12 00:03:27;;;;;;;16.25;7.13;;;13.30;99.90;;;;;;5384355;26;20003;-69
2024/04/12 00:05:54;;;;;;;15.27;6.75;;;13.30;99.90;;;;;;5384448;26;19996;-70
2024/04/12 00:08:22;;;;;;;14.00;7.35;;;13.30;99.90;;;;;;5384295;26;19992;-69
2024/04/12 00:10:47;;;;;;;10.93;7.13;;;13.30;99.90;;;;;;5384419;26;20138;-70
2024/04/12 00:13:13;;;;;;;17.92;7.20;;;13.40;99.90;;;;;;5384453;26;20038;-69
2024/04/12 00:15:41;;;;;;;14.65;7.07;;;13.40;99.90;;;;;;5384478;26;20003;-70
2024/04/12 00:18:07;;;;;;;17.73;7.47;;;13.40;99.90;;;;;;5384476;26;20065;-69
2024/04/12 00:20:32;;;;;;;14.10;7.65;;;13.40;99.90;;;;;;5384280;26;19996;-69
2024/04/12 00:23:01;;;;;;;18.67;8.88;;;13.40;99.90;;;;;;5384156;26;20515;-69
2024/04/12 00:25:28;;;;;;;17.55;8.52;;;13.40;99.90;;;;;;5384217;26;19996;-69
2024/04/12 00:27:55;;;;;;;16.42;7.85;;;13.40;99.90;;;;;;5384126;26;20061;-69
2024/04/12 00:30:59;;;;;;;12.57;7.03;;;13.40;99.90;;;;;;5383937;26;20003;-69
2024/04/12 00:33:10;;;;;;;12.63;8.02;;;13.50;99.90;;;;;;5384015;26;19996;-69
2024/04/12 00:35:37;;;;;;;11.43;7.97;;;13.50;99.90;;;;;;5384097;26;20003;-69
2024/04/12 00:38:03;;;;;;;13.88;7.35;;;13.50;99.90;;;;;;5384266;26;20028;-69
2024/04/12 00:40:33;;;;;;;17.70;7.70;;;13.50;99.90;;;;;;5384059;26;20318;-69
2024/04/12 00:43:19;;;;;;;12.95;7.50;;;13.50;99.90;;;;;;5383789;26;19999;-70
2024/04/12 00:45:48;;;;;;;14.57;7.90;;;13.50;99.90;;;;;;5383854;26;20395;-69
2024/04/12 00:48:15;;;;;;;13.82;7.55;;;13.50;99.90;;;;;;5384033;26;19996;-69
2024/04/12 00:50:43;;;;;;;16.23;8.13;;;13.50;99.90;;;;;;5383774;26;20421;-70
2024/04/12 00:53:10;;;;;;;15.70;7.90;;;13.50;99.90;;;;;;5384156;26;20062;-69
2024/04/12 00:55:39;;;;;;;16.27;7.90;;;13.50;99.90;;;;;;5384127;26;20311;-70
2024/04/12 00:58:09;;;;;;;14.75;7.65;;;13.50;99.90;;;;;;5384032;26;19988;-70
2024/04/12 01:00:35;;;;;;;11.38;7.90;;;13.50;99.90;;;;;;5383506;26;20435;-69
2024/04/12 01:03:14;;;;;;;15.88;7.75;;;13.50;99.90;;;;;;5384523;26;19993;-69
2024/04/12 01:05:39;;;;;;;15.50;7.60;;;13.50;99.90;;;;;;5383978;26;19999;-70
2024/04/12 01:08:06;;;;;;;16.10;8.02;;;13.50;99.90;;;;;;5383766;26;20024;-69
2024/04/12 01:10:36;;;;;;;16.20;7.65;;;13.50;99.90;;;;;;5383877;26;19988;-69
2024/04/12 01:13:03;;;;;;;13.40;7.32;;;13.50;99.90;;;;;;5383677;26;20466;-69
2024/04/12 01:15:36;;;;;;;17.48;7.38;;;13.50;99.90;;;;;;5383976;26;20007;-69
2024/04/12 01:18:04;;;;;;;16.63;7.45;;;13.50;99.90;;;;;;5383672;26;19992;-69
2024/04/12 01:20:35;;;;;;;14.25;7.50;;;13.50;99.90;;;;;;5383536;26;20000;-69
2024/04/12 01:23:03;;;;;;;16.15;7.25;;;13.50;99.90;;;;;;5383875;26;19992;-69
2024/04/12 01:25:29;;;;;;;12.98;7.95;;;13.50;99.90;;;;;;5383602;26;20090;-69
2024/04/12 01:27:57;;;;;;;14.57;8.18;;;13.50;99.90;;;;;;5383476;26;20000;-69
2024/04/12 01:30:23;;;;;;;14.20;7.45;;;13.50;99.90;;;;;;5383580;26;20430;-70
2024/04/12 01:32:50;;;;;;;16.02;7.97;;;13.50;99.90;;;;;;5383678;26;20003;-70
2024/04/12 01:35:18;;;;;;;14.43;7.75;;;13.50;99.90;;;;;;5383350;26;20066;-69
2024/04/12 01:37:43;;;;;;;12.48;7.65;;;13.50;99.90;;;;;;5383452;26;20007;-70
2024/04/12 01:40:12;;;;;;;15.38;7.97;;;13.50;99.90;;;;;;5383148;26;19989;-70
2024/04/12 01:42:43;;;;;;;10.85;7.10;;;13.50;99.90;;;;;;5383019;26;20478;-70
2024/04/12 01:45:16;;;;;;;17.90;7.05;;;13.50;99.90;;;;;;5382973;26;20020;-69
2024/04/12 01:47:44;;;;;;;16.50;7.90;;;13.50;99.90;;;;;;5383415;26;20016;-69
2024/04/12 01:50:21;;;;;;;15.85;8.05;;;13.50;99.90;;;;;;5382625;26;20016;-70
2024/04/12 01:52:50;;;;;;;12.73;6.88;;;13.60;99.90;;;;;;5382912;26;20089;-69
2024/04/12 01:55:18;;;;;;;14.32;7.28;;;13.60;99.90;;;;;;5383321;26;19992;-70
2024/04/12 01:57:49;;;;;;;12.25;7.47;;;13.60;99.90;;;;;;5383015;26;20003;-70
2024/04/12 02:00:16;;;;;;;14.48;7.28;;;13.60;99.90;;;;;;5382815;26;20539;-70
2024/04/12 02:02:43;;;;;;;13.73;7.50;;;13.50;99.90;;;;;;5382895;26;20000;-69
2024/04/12 02:05:09;;;;;;;12.80;7.45;;;13.50;99.90;;;;;;5382792;26;20439;-69
2024/04/12 02:07:39;;;;;;;14.23;7.35;;;13.60;99.90;;;;;;5383219;26;20004;-70
2024/04/12 02:10:07;;;;;;;15.40;7.45;;;13.60;99.90;;;;;;5382648;26;19988;-70
2024/04/12 02:12:36;;;;;;;13.48;7.40;;;13.50;99.90;;;;;;5381104;26;19992;-69
2024/04/12 02:15:19;;;;;;;16.83;7.97;;;13.50;99.90;;;;;;5382832;26;20010;-69
2024/04/12 02:18:04;;;;;;;15.57;8.48;;;13.50;99.90;;;;;;5382767;26;20003;-69
2024/04/12 02:20:33;;;;;;;14.57;7.35;;;13.50;99.90;;;;;;5382890;26;19988;-69
2024/04/12 02:23:04;;;;;;;11.15;7.60;;;13.50;99.90;;;;;;5382601;26;20028;-69
2024/04/12 02:25:33;;;;;;;14.93;7.30;;;13.60;99.90;;;;;;5382441;26;19993;-70
2024/04/12 02:27:58;;;;;;;13.18;7.80;;;13.50;99.90;;;;;;5382481;26;20061;-69
2024/04/12 02:30:24;;;;;;;15.75;8.18;;;13.50;99.90;;;;;;5382513;26;20000;-70
2024/04/12 02:32:52;;;;;;;14.27;7.80;;;13.50;99.90;;;;;;5382226;26;20342;-69
2024/04/12 02:35:20;;;;;;;14.13;7.32;;;13.60;99.90;;;;;;5382244;26;19996;-70
2024/04/12 02:37:47;;;;;;;11.73;6.97;;;13.60;99.90;;;;;;5382673;26;19988;-69
2024/04/12 02:40:15;;;;;;;14.27;7.07;;;13.60;99.90;;;;;;5382316;26;19996;-69
2024/04/12 02:42:43;;;;;;;15.90;7.00;;;13.60;99.90;;;;;;5382193;26;19992;-69
2024/04/12 02:45:12;;;;;;;12.63;7.15;;;13.60;99.90;;;;;;5382229;26;20516;-70
2024/04/12 02:47:40;;;;;;;14.73;6.82;;;13.60;99.90;;;;;;5382062;26;20557;-70
2024/04/12 02:50:10;;;;;;;14.20;7.20;;;13.60;99.90;;;;;;5381839;26;20073;-69
2024/04/12 02:52:38;;;;;;;12.23;6.72;;;13.60;99.90;;;;;;5382272;26;19996;-70
2024/04/12 02:55:12;;;;;;;12.70;6.97;;;13.60;99.90;;;;;;5381967;26;20326;-69
2024/04/12 02:57:41;;;;;;;11.98;6.68;;;13.70;99.90;;;;;;5382242;26;20000;-69
2024/04/12 03:00:21;;;;;;;10.38;6.80;;;13.70;99.90;;;;;;5382384;26;20000;-69
2024/04/12 03:02:53;;;;;;;12.32;6.35;;;13.70;99.90;;;;;;5382185;26;20003;-70
2024/04/12 03:05:20;;;;;;;12.52;6.60;;;13.70;99.90;;;;;;5382130;26;20077;-69
2024/04/12 03:07:46;;;;;;;13.35;6.18;;;13.70;99.90;;;;;;5381681;26;20443;-69
2024/04/12 03:10:18;;;;;;;11.85;6.07;;;13.70;99.90;;;;;;5381840;26;19988;-70
2024/04/12 03:12:45;;;;;;;10.75;6.70;;;13.70;99.90;;;;;;5381972;26;20466;-70
2024/04/12 03:15:11;;;;;;;11.93;6.63;;;13.70;99.90;;;;;;5381583;26;20069;-69
2024/04/12 03:17:36;;;;;;;11.80;5.93;;;13.70;99.90;;;;;;5381593;26;20451;-69
2024/04/12 03:20:03;;;;;;;11.38;6.07;;;13.70;99.90;;;;;;5381698;26;19993;-69
2024/04/12 03:22:30;;;;;;;11.20;6.53;;;13.70;99.90;;;;;;5381833;26;20064;-69
2024/04/12 03:24:56;;;;;;;15.02;6.90;;;13.70;99.90;;;;;;5384792;26;20011;-69
2024/04/12 03:27:22;;;;;;;12.95;6.50;;;13.70;99.90;;;;;;5385572;26;20004;-69
2024/04/12 03:29:49;;;;;;;10.48;6.30;;;13.70;99.90;;;;;;5384832;26;20024;-69
2024/04/12 03:32:15;;;;;;;9.30;5.68;;;13.70;99.90;;;;;;5385223;26;20576;-69
2024/04/12 03:34:41;;;;;;;13.38;6.63;;;13.70;99.90;;;;;;5385121;26;20065;-69
2024/04/12 03:37:38;;;;;;;12.52;6.53;;;13.70;99.90;;;;;;5384661;26;20004;-69
2024/04/12 03:40:00;;;;;;;10.45;5.88;;;13.70;99.90;;;;;;5385165;26;20325;-69
2024/04/12 03:42:28;;;;;;;9.07;5.65;;;13.70;99.90;;;;;;5384884;26;20434;-69
2024/04/12 03:44:57;;;;;;;12.45;6.20;;;13.70;99.90;;;;;;5384871;26;20003;-69
2024/04/12 03:47:25;;;;;;;11.45;6.30;;;13.70;99.90;;;;;;5384687;26;19992;-69
2024/04/12 03:49:52;;;;;;;11.35;5.72;;;13.70;99.90;;;;;;5384560;26;20026;-69
2024/04/12 03:52:20;;;;;;;10.88;5.93;;;13.70;99.90;;;;;;5385042;26;20075;-70
2024/04/12 03:54:46;;;;;;;10.30;5.80;;;13.70;99.90;;;;;;5384551;26;20431;-69
2024/04/12 03:57:12;;;;;;;12.90;6.45;;;13.70;99.90;;;;;;5384642;26;20016;-69
2024/04/12 03:59:38;;;;;;;8.98;5.97;;;13.70;99.90;;;;;;5384351;26;20058;-70
2024/04/12 04:02:08;;;;;;;11.57;5.55;;;13.70;99.90;;;;;;5384500;26;19989;-69
2024/04/12 04:04:38;;;;;;;8.02;5.70;;;13.70;99.00;;;;;;5384675;26;20002;-69
2024/04/12 04:07:05;;;;;;;10.70;5.55;;;13.70;99.90;;;;;;5384573;26;20000;-70
2024/04/12 04:09:32;;;;;;;9.52;5.43;;;13.70;99.90;;;;;;5384089;26;20066;-69
2024/04/12 04:11:58;;;;;;;10.80;5.65;;;13.70;99.90;;;;;;5384198;26;19989;-69
2024/04/12 04:14:26;;;;;;;11.45;5.50;;;13.70;99.90;;;;;;5384142;26;20445;-69
2024/04/12 04:16:55;;;;;;;10.25;5.40;;;13.70;99.90;;;;;;5384639;26;20020;-69
2024/04/12 04:19:31;;;;;;;9.77;5.53;;;13.70;99.90;;;;;;5384296;26;19988;-69
2024/04/12 04:22:01;;;;;;;9.57;5.05;;;13.70;99.90;;;;;;5384019;26;20007;-69
2024/04/12 04:24:27;;;;;;;11.75;5.60;;;13.70;99.90;;;;;;5384296;26;19996;-69
2024/04/12 04:26:53;;;;;;;10.43;5.32;;;13.60;99.90;;;;;;5384482;26;19992;-70
2024/04/12 04:29:18;;;;;;;6.82;5.05;;;13.70;99.90;;;;;;5384285;26;19996;-70
2024/04/12 04:31:49;;;;;;;9.00;5.20;;;13.60;99.90;;;;;;5384280;26;20062;-69
2024/04/12 04:34:17;;;;;;;8.77;5.05;;;13.70;99.90;;;;;;5382789;26;20434;-70
2024/04/12 04:36:44;;;;;;;10.15;5.20;;;13.70;99.90;;;;;;5383814;26;20330;-69
2024/04/12 04:39:17;;;;;;;14.18;5.78;;;13.70;99.90;;;;;;5383769;26;20356;-69
2024/04/12 04:41:45;;;;;;;14.18;5.70;;;13.60;99.90;;;;;;5384207;26;20002;-69
2024/04/12 04:44:14;;;;;;;10.73;5.38;;;13.60;99.90;;;;;;5383884;26;20036;-69
2024/04/12 04:46:41;;;;;;;10.27;4.55;;;13.60;99.90;;;;;;5383693;26;20016;-69
2024/04/12 04:49:07;;;;;;;10.95;4.95;;;13.60;99.90;;;;;;5383759;26;20008;-69
2024/04/12 04:51:33;;;;;;;10.82;5.47;;;13.60;99.90;;;;;;5383935;26;19992;-69
2024/04/12 04:53:59;;;;;;;11.60;5.70;;;13.60;99.90;;;;;;5384114;26;20003;-70
2024/04/12 04:56:25;;;;;;;10.05;5.15;;;13.60;99.90;;;;;;5384259;26;20516;-69
2024/04/12 04:58:52;;;;;;;11.13;5.65;;;13.60;99.90;;;;;;5383759;26;20325;-70
2024/04/12 05:01:17;;;;;;;10.52;5.40;;;13.60;99.90;;;;;;5383546;26;19999;-69
2024/04/12 05:03:43;;;;;;;8.60;5.20;;;13.70;99.90;;;;;;5383802;26;20378;-69
2024/04/12 05:06:08;;;;;;;7.13;5.43;;;13.70;99.90;;;;;;5383515;26;20007;-69
2024/04/12 05:08:35;;;;;;;10.02;5.20;;;13.70;99.90;;;;;;5383497;26;20138;-69
2024/04/12 05:11:05;;;;;;;9.05;5.47;;;13.70;99.90;;;;;;5383295;26;19992;-69
2024/04/12 05:13:37;;;;;;;8.43;4.97;;;13.70;99.90;;;;;;5383331;26;20021;-69
2024/04/12 05:16:09;;;;;;;9.45;5.60;;;13.70;99.90;;;;;;5383865;26;19992;-69
2024/04/12 05:18:36;;;;;;;10.60;5.13;;;13.70;99.90;;;;;;5383475;26;20028;-69
2024/04/12 05:21:03;;;;;;;9.63;5.68;;;13.70;99.90;;;;;;5383180;26;19992;-69
2024/04/12 05:23:29;;;;;;;13.38;6.10;;;13.80;99.90;;;;;;5383148;26;20276;-69
2024/04/12 05:25:55;;;;;;;10.35;5.68;;;13.80;99.90;;;;;;5383223;26;20003;-69
2024/04/12 05:28:21;;;;;;;11.07;6.15;;;13.80;99.90;;;;;;5383178;26;20004;-69
2024/04/12 05:30:49;;;;;;;8.60;5.97;;;13.80;99.90;;;;;;5383332;26;20318;-69
2024/04/12 05:33:16;;;;;;;11.25;6.32;;;13.80;99.90;;;;;;5383234;26;19995;-70
2024/04/12 05:35:42;;;;;;;9.25;6.20;;;13.80;99.90;;;;;;5383279;26;20368;-69
2024/04/12 05:38:08;;;;;;;11.90;5.95;;;13.80;99.90;;;;;;5383025;26;19992;-69
2024/04/12 05:40:41;;;;;;;7.93;5.03;;;13.70;99.90;;;;;;5383297;26;19992;-69
2024/04/12 05:43:13;;;;;;;8.87;4.87;;;13.80;99.90;;;;;;5383528;26;20134;-69
2024/04/12 05:45:39;;;;;;;10.13;4.97;;;13.80;99.90;;;;;;5383035;26;20003;-68
2024/04/12 05:48:12;;;;;;;9.45;5.25;;;13.80;99.90;;;;;;5382995;26;20077;-68
2024/04/12 05:50:39;;;;;;;9.70;5.50;;;13.80;99.90;;;;;;5382887;26;20435;-68
2024/04/12 05:53:05;;;;;;;13.30;4.93;;;13.80;99.90;;;;;;5382945;26;20391;-69
2024/04/12 05:55:31;;;;;;;13.85;5.65;;;13.80;99.90;;;;;;5382824;26;19992;-69
2024/04/12 05:58:00;;;;;;;10.85;5.10;;;13.80;99.90;;;;;;5382686;26;20103;-69
2024/04/12 06:00:26;;;;;;;8.88;6.25;;;13.80;99.90;;;;;;5383109;26;20000;-69
2024/04/12 06:02:51;;;;;;;10.35;5.90;;;13.80;99.90;;;;;;5382801;26;20016;-70
2024/04/12 06:05:18;;;;;;;10.88;5.90;;;13.90;99.90;;;;;;5382778;26;19992;-69
2024/04/12 06:07:47;;;;;;;10.05;5.80;;;13.90;99.90;;;;;;5383204;26;20437;-69
2024/04/12 06:10:13;;;;;;;8.85;5.60;;;14.00;99.90;;;;;;5382743;26;20007;-69
2024/04/12 06:12:41;;;;;;;7.60;5.78;;;14.00;99.90;;;;;;5382673;26;19992;-71
2024/04/12 06:15:09;;;;;;;8.95;5.63;;;14.10;99.90;;;;;;5382831;26;19999;-69
2024/04/12 06:17:34;;;;;;;8.60;4.80;;;14.10;99.90;;;;;;5382767;26;20341;-69
2024/04/12 06:20:01;;;;;;;6.53;4.80;;;14.10;99.90;;;;;;5382222;26;19992;-69
2024/04/12 06:22:26;;;;;;;7.00;4.15;;;14.10;99.90;;;;;;5382408;26;20003;-69
2024/04/12 06:24:53;;;;;;;7.60;4.70;;;14.20;99.90;;;;;;5382493;26;20442;-69
2024/04/12 06:27:29;;;;;;;7.72;4.57;;;14.10;99.90;;;;;;5382528;26;20396;-68
2024/04/12 06:30:00;;;;;;;5.72;4.50;;;14.10;99.90;;;;;;5382431;26;19999;-69
2024/04/12 06:32:26;;;;;;;6.10;4.68;;;14.10;99.90;;;;;;5382134;26;19988;-69
2024/04/12 06:34:54;;;;;;;6.18;4.53;;;14.10;99.90;;;;;;5381938;26;20064;-69
2024/04/12 06:37:23;;;;;;;8.05;5.30;;;14.20;99.90;;;;;;5382368;26;20148;-68
2024/04/12 06:39:48;;;;;;;8.07;5.32;;;14.10;99.90;;;;;;5382380;26;20435;-69
2024/04/12 06:42:15;;;;;;;8.77;5.95;;;14.10;99.90;;;;;;5382076;26;19992;-68
2024/04/12 06:44:48;;;;;;;7.38;5.00;;;14.10;99.90;;;;;;5382253;26;19992;-69
2024/04/12 06:47:18;;;;;;;8.20;5.28;;;14.10;99.90;;;;;;5382217;26;19992;-69
2024/04/12 06:49:44;;;;;;;7.38;5.90;;;14.10;99.90;;;;;;5382001;26;19989;-69
2024/04/12 06:52:11;;;;;;;9.32;6.03;;;14.10;99.90;;;;;;5381917;26;20446;-69
2024/04/12 06:54:41;;;;;;;11.95;6.65;;;14.10;99.90;;;;;;5382185;26;19996;-69
2024/04/12 06:57:08;;;;;;;7.65;6.20;;;14.00;99.90;;;;;;5381295;26;20445;-68
2024/04/12 06:59:35;;;;;;;11.70;6.90;;;14.00;99.90;;;;;;5381584;26;19992;-69
2024/04/12 07:02:06;;;;;;;11.77;8.32;;;14.00;99.90;;;;;;5381999;26;20004;-69
2024/04/12 07:04:32;;;;;;;14.85;8.13;;;14.00;99.90;;;;;;5381598;26;20074;-69
2024/04/12 07:06:59;;;;;;;11.68;8.40;;;14.00;99.90;;;;;;5381955;26;20115;-69
2024/04/12 07:09:25;;;;;;;14.20;8.52;;;14.00;99.90;;;;;;5381616;26;20091;-69
2024/04/12 07:11:51;;;;;;;14.73;9.50;;;14.00;99.90;;;;;;5381817;26;20388;-69
2024/04/12 07:14:22;;;;;;;11.20;9.43;;;14.00;99.90;;;;;;5381398;26;20461;-69
2024/04/12 07:16:48;;;;;;;12.27;8.90;;;14.00;99.90;;;;;;5381537;26;20134;-69
2024/04/12 07:19:14;;;;;;;15.23;9.85;;;14.00;99.90;;;;;;5381559;26;20003;-69
2024/04/12 07:21:40;;;;;;;15.98;9.43;;;14.10;99.90;;;;;;5381400;26;19992;-69
2024/04/12 07:24:06;;;;;;;14.90;9.00;;;14.20;99.90;;;;;;5381468;26;20330;-69
2024/04/12 07:26:32;;;;;;;10.70;8.45;;;14.30;99.90;;;;;;5381211;26;20430;-69
2024/04/12 07:29:01;;;;;;;11.45;7.78;;;14.30;99.90;;;;;;5381321;26;20368;-69
2024/04/12 07:31:34;;;;;;;14.95;8.57;;;14.30;99.90;;;;;;5381583;26;20000;-69
2024/04/12 07:34:01;;;;;;;11.68;7.68;;;14.30;99.90;;;;;;5381275;26;20000;-69
2024/04/12 07:36:30;;;;;;;10.50;7.03;;;14.20;99.90;;;;;;5381420;26;19993;-69
2024/04/12 07:39:01;;;;;;;10.77;6.70;;;14.30;99.90;;;;;;5381511;26;20000;-69
2024/04/12 07:41:27;;;;;;;8.85;6.22;;;14.30;99.90;;;;;;5381031;26;20318;-69
2024/04/12 07:43:55;;;;;;;9.18;6.10;;;14.30;99.90;;;;;;5381265;26;19995;-69
2024/04/12 07:46:27;;;;;;;7.43;5.80;;;14.30;99.90;;;;;;5381196;26;19992;-69
2024/04/12 07:48:57;;;;;;;11.73;6.72;;;14.30;99.90;;;;;;5380723;26;19996;-69
2024/04/12 07:51:28;;;;;;;12.25;7.30;;;14.30;99.90;;;;;;5381442;26;19999;-69
2024/04/12 07:53:54;;;;;;;11.82;7.65;;;14.30;99.90;;;;;;5381197;26;20434;-69
2024/04/12 07:56:21;;;;;;;11.63;8.25;;;14.40;99.90;;;;;;5381333;26;19993;-69
2024/04/12 07:59:13;;;;;;;13.43;8.18;;;14.30;99.90;;;;;;5380754;26;19988;-69
2024/04/12 08:01:32;;;;;;;11.45;7.38;;;14.40;99.90;;;;;;5380684;26;19992;-69
2024/04/12 08:04:05;;;;;;;13.88;8.60;;;14.40;99.90;;;;;;5380767;26;20441;-69
2024/04/12 08:07:06;;;;;;;16.15;9.10;;;14.50;99.90;;;;;;5380743;26;20003;-69
2024/04/12 08:09:52;;;;;;;14.75;9.13;;;14.50;99.90;;;;;;5381959;26;19993;-69
2024/04/12 08:12:13;;;;;;;18.45;9.88;;;14.60;99.90;;;;;;5384121;26;19996;-69
2024/04/12 08:14:39;;;;;;;16.05;9.70;;;14.60;99.90;;;;;;5384669;26;20322;-69
2024/04/12 08:17:14;;;;;;;18.23;9.95;;;14.60;99.90;;;;;;5384133;26;20005;-69
2024/04/12 08:19:45;;;;;;;19.20;9.23;;;14.50;99.90;;;;;;5384184;26;19988;-69
2024/04/12 08:22:18;;;;;;;15.82;8.63;;;14.50;99.90;;;;;;5383962;26;20020;-69
2024/04/12 08:24:49;;;;;;;18.42;9.73;;;14.50;99.90;;;;;;5384487;26;19992;-69
2024/04/12 08:27:18;;;;;;;14.57;8.50;;;14.60;99.90;;;;;;5383962;26;19996;-69
2024/04/12 08:29:45;;;;;;;12.70;8.88;;;14.80;99.90;;;;;;5383882;26;20003;-69
2024/04/12 08:34:49;;;;;;;14.65;9.43;;;15.30;99.90;;;;;;5469912;26;20491;-69
2024/04/12 08:37:17;;;;;;;13.93;7.45;;;15.90;92.20;;;;;;5435852;26;20023;-69
2024/04/12 08:39:44;;;;;;;10.32;6.47;;;16.20;56.50;;;;;;5436038;26;20002;-70
2024/04/12 08:42:14;;;;;;;12.55;6.38;;;16.30;39.50;;;;;;5435917;26;19995;-70
2024/04/12 08:44:40;;;;;;;9.88;6.00;;;16.60;32.90;;;;;;5436097;26;20060;-70
2024/04/12 08:47:38;;;;;;;11.18;5.60;;;16.60;12.80;;;;;;5435884;26;20441;-69
2024/04/12 08:50:13;;;;;;;10.10;5.75;;;16.60;8.40;;;;;;5435848;26;20006;-70
2024/04/12 08:52:43;;;;;;;10.95;5.35;;;17.00;4.20;;;;;;5435384;26;19995;-70
2024/04/12 08:55:13;;;;;;;7.40;4.95;;;16.80;1.00;;;;;;5435618;26;19987;-70
2024/04/12 08:57:41;;;;;;;7.95;5.03;;;16.70;5.40;;;;;;5435735;26;19994;-70
2024/04/12 09:00:09;;;;;;;10.43;5.40;;;16.60;9.90;;;;;;5435793;26;20006;-69
2024/04/12 09:02:40;;;;;;;7.63;5.07;;;16.50;15.60;;;;;;5435802;26;20082;-69
2024/04/12 09:05:06;;;;;;;7.03;5.00;;;16.30;24.60;;;;;;5435435;26;20006;-70
2024/04/12 09:07:35;;;;;;;9.32;4.70;;;16.30;27.20;;;;;;5435476;26;19991;-70
2024/04/12 09:10:01;;;;;;;9.68;4.47;;;16.30;27.90;;;;;;5435700;26;19991;-69
2024/04/12 09:12:27;;;;;;;8.15;5.07;;;16.60;24.80;;;;;;5435305;26;20437;-70
2024/04/12 09:14:53;;;;;;;6.45;4.50;;;16.70;28.60;;;;;;5435279;26;19988;-70
2024/04/12 09:17:25;;;;;;;9.00;5.00;;;16.60;17.40;;;;;;5435317;26;19999;-69
2024/04/12 09:19:51;;;;;;;8.98;5.07;;;16.40;23.80;;;;;;5435342;26;19998;-70
2024/04/12 09:22:18;;;;;;;7.95;4.90;;;16.70;16.60;;;;;;5435579;26;19991;-70
2024/04/12 09:24:47;;;;;;;8.07;5.90;;;16.60;13.60;;;;;;5435184;26;19991;-69
2024/04/12 09:27:22;;;;;;;6.80;5.03;;;16.60;16.60;;;;;;5435534;26;19991;-69
2024/04/12 09:29:54;;;;;;;11.48;5.22;;;16.90;12.10;;;;;;5435582;26;20120;-69
2024/04/12 09:32:53;;;;;;;7.13;5.13;;;16.90;1.00;;;;;;5435141;26;19988;-69
2024/04/12 09:35:15;;;;;;;8.82;5.57;;;17.00;1.00;;;;;;5435174;26;20002;-69
2024/04/12 09:37:44;;;;;;;6.05;4.50;;;17.20;1.00;;;;;;5435309;26;20441;-69
2024/04/12 09:42:45;;;;;;;8.70;4.65;;;17.80;1.00;;;;;;5435157;26;19999;-69
2024/04/12 09:45:16;;;;;;;9.23;4.85;;;18.00;1.00;;;;;;5425738;26;19988;-70
2024/04/12 10:38:05;;;;;;;14.68;9.70;;;17.40;1.00;;;;;;5419098;26;20003;-70
2024/04/12 10:40:31;;;;;;;14.60;9.52;;;17.50;1.00;;;;;;5419268;26;20064;-70
2024/04/12 10:42:58;;;;;;;13.55;9.57;;;17.70;1.00;;;;;;5419089;26;20003;-70
2024/04/12 10:45:25;;;;;;;16.40;9.20;;;17.50;1.00;;;;;;5418877;26;20494;-70
2024/04/12 10:47:54;;;;;;;17.13;10.40;;;17.60;1.00;;;;;;5418673;26;20298;-70
2024/04/12 10:50:23;;;;;;;16.80;10.65;;;17.60;1.00;;;;;;5418633;26;19996;-69
2024/04/12 10:52:49;;;;;;;15.30;10.30;;;17.70;1.00;;;;;;5418886;26;20061;-69
2024/04/12 10:55:19;;;;;;;16.40;11.55;;;17.70;1.00;;;;;;5418703;26;19999;-69
2024/04/12 10:57:49;;;;;;;20.38;12.88;;;17.70;1.00;;;;;;5417495;26;19991;-70
2024/04/12 11:00:16;;;;;;;15.18;11.50;;;17.60;1.00;;;;;;5418762;26;19987;-70
2024/04/12 11:02:46;;;;;;;15.48;9.65;;;17.60;1.00;;;;;;5418474;26;19999;-69
2024/04/12 11:07:54;;;;;;;20.08;10.88;;;17.70;1.00;;;;;;5472187;26;20412;-69
2024/04/12 11:10:24;;;;;;;16.60;11.88;;;17.60;1.00;;;;;;5436256;26;20027;-68
2024/04/12 11:12:59;;;;;;;17.77;12.50;;;17.70;1.00;;;;;;5435960;26;20448;-68
2024/04/12 11:32:14;;;;;;;17.75;10.60;;;18.10;1.00;;;;;;5435688;26;19991;-69
2024/04/12 11:34:41;;;;;;;15.95;11.98;;;18.10;1.00;;;;;;5435477;26;20037;-70
2024/04/12 11:37:09;;;;;;;19.42;11.90;;;18.20;1.00;;;;;;5435502;26;19988;-70
2024/04/12 11:39:36;;;;;;;18.15;10.82;;;18.20;1.00;;;;;;5435525;26;19987;-70
2024/04/12 11:42:03;;;;;;;15.10;10.68;;;18.10;1.00;;;;;;5436099;26;20382;-70
2024/04/12 11:44:29;;;;;;;14.63;9.73;;;18.10;1.00;;;;;;5435530;26;19996;-70
2024/04/12 11:46:56;;;;;;;17.13;10.25;;;18.30;1.00;;;;;;5435518;26;19987;-69
2024/04/12 11:49:26;;;;;;;17.02;10.23;;;18.60;1.00;;;;;;5435610;26;20006;-70
2024/04/12 11:51:56;;;;;;;16.55;9.82;;;18.60;99.90;;;;;;5435258;26;20006;-69
2024/04/12 11:54:24;;;;;;;14.57;9.10;;;18.50;99.90;;;;;;5435123;26;20003;-70
2024/04/12 11:56:50;;;;;;;13.27;8.57;;;18.50;99.90;;;;;;5435382;26;19995;-70
2024/04/12 11:59:18;;;;;;;12.88;8.65;;;18.60;99.90;;;;;;5435715;26;19988;-69
2024/04/12 12:01:44;;;;;;;8.40;7.47;;;18.60;99.90;;;;;;5435384;26;19991;-69
2024/04/12 12:04:10;;;;;;;11.98;8.38;;;18.80;99.90;;;;;;5435531;26;20003;-69
2024/04/12 12:06:37;;;;;;;12.18;7.63;;;18.90;99.90;;;;;;5435795;26;19995;-70
2024/04/12 12:09:11;;;;;;;9.57;7.22;;;18.90;99.90;;;;;;5434833;26;20002;-70
2024/04/12 12:11:41;;;;;;;13.57;8.00;;;19.10;99.90;;;;;;5435643;26;20085;-70
2024/04/12 12:14:06;;;;;;;13.55;6.97;;;19.20;99.90;;;;;;5435327;26;19987;-70
2024/04/12 12:16:33;;;;;;;11.15;6.90;;;19.10;99.90;;;;;;5433997;26;19995;-69
2024/04/12 12:18:59;;;;;;;12.55;6.78;;;19.30;99.90;;;;;;5434563;26;20437;-69
2024/04/12 12:21:25;;;;;;;11.25;6.15;;;19.40;99.90;;;;;;5434495;26;20440;-69
2024/04/12 12:23:50;;;;;;;11.75;5.57;;;19.50;99.90;;;;;;5434399;26;19987;-69
2024/04/12 12:26:16;;;;;;;7.75;4.97;;;19.50;1.00;;;;;;5399411;26;20008;-69
2024/04/12 12:28:42;;;;;;;10.30;6.40;;;19.60;1.00;;;;;;5388646;26;19992;-69
2024/04/12 12:31:07;;;;;;;10.80;6.35;;;19.40;99.90;;;;;;5384347;26;19988;-70
2024/04/12 12:33:38;;;;;;;11.55;6.68;;;19.60;12.90;;;;;;5384258;26;19996;-69
2024/04/12 12:36:05;;;;;;;11.45;7.00;;;19.60;99.90;;;;;;5383907;26;20016;-69
2024/04/12 12:38:33;;;;;;;9.15;5.85;;;19.60;99.90;;;;;;5384295;26;20061;-70
2024/04/12 12:40:58;;;;;;;11.38;5.47;;;19.50;99.90;;;;;;5384120;26;20422;-70
2024/04/12 12:43:28;;;;;;;12.13;5.97;;;19.50;99.90;;;;;;5384065;26;19988;-70
2024/04/12 12:45:57;;;;;;;7.85;4.30;;;19.40;84.60;;;;;;5384081;26;20000;-70
2024/04/12 12:48:27;;;;;;;10.00;5.05;;;19.40;99.90;;;;;;5384187;26;19992;-70
2024/04/12 12:50:54;;;;;;;12.32;5.30;;;19.60;99.90;;;;;;5383810;26;20003;-70
2024/04/12 12:53:22;;;;;;;7.05;5.20;;;19.50;47.60;;;;;;5383964;26;19996;-70
2024/04/12 12:55:51;;;;;;;8.45;5.20;;;19.30;91.50;;;;;;5383906;26;20103;-70
2024/04/12 12:58:21;;;;;;;10.20;5.45;;;19.20;99.90;;;;;;5383703;26;20035;-70
2024/04/12 13:00:47;;;;;;;12.48;5.07;;;19.00;99.90;;;;;;5383593;26;20003;-69
2024/04/12 13:03:17;;;;;;;10.13;5.40;;;18.90;1.00;;;;;;5383611;26;19988;-69
2024/04/12 13:05:45;;;;;;;8.15;4.70;;;18.80;1.00;;;;;;5383845;26;20028;-69
2024/04/12 13:08:15;;;;;;;9.50;5.20;;;18.70;99.90;;;;;;5383761;26;20021;-69
2024/04/12 13:10:42;;;;;;;7.65;4.60;;;18.70;1.00;;;;;;5383601;26;19996;-69
2024/04/12 13:13:08;;;;;;;9.30;4.05;;;18.70;1.00;;;;;;5384019;26;19995;-70
2024/04/12 13:15:33;;;;;;;8.02;5.75;;;18.80;1.00;;;;;;5383444;26;19996;-69
2024/04/12 13:17:59;;;;;;;9.43;5.70;;;18.90;99.90;;;;;;5383749;26;20003;-70
2024/04/12 13:20:25;;;;;;;7.90;5.85;;;18.90;99.90;;;;;;5383714;26;20000;-69
2024/04/12 13:22:50;;;;;;;6.70;5.85;;;18.90;99.90;;;;;;5383776;26;20066;-70
2024/04/12 13:25:17;;;;;;;9.18;5.50;;;19.00;99.90;;;;;;5383736;26;19992;-70
2024/04/12 13:27:47;;;;;;;8.90;5.45;;;19.20;99.90;;;;;;5383232;26;19996;-69
2024/04/12 13:30:14;;;;;;;10.38;5.28;;;19.30;99.90;;;;;;5383191;26;20004;-70
2024/04/12 13:32:41;;;;;;;10.02;5.07;;;19.50;99.90;;;;;;5382993;26;19988;-70
2024/04/12 13:35:07;;;;;;;7.88;4.85;;;19.70;91.60;;;;;;5383458;26;19992;-70
2024/04/12 13:37:33;;;;;;;5.72;4.70;;;19.90;61.00;;;;;;5383037;26;20007;-69
2024/04/12 13:39:59;;;;;;;10.35;6.22;;;20.10;1.00;;;;;;5381568;26;20457;-70
2024/04/12 13:42:25;;;;;;;10.38;6.40;;;20.00;1.00;;;;;;5382990;26;19996;-70
2024/04/12 13:53:09;;;;;;;9.20;5.82;;;20.30;99.90;;;;;;5383031;26;20020;-69
2024/04/12 13:55:36;;;;;;;9.13;5.57;;;20.30;99.90;;;;;;5382951;26;20003;-70
2024/04/12 13:58:02;;;;;;;11.23;5.55;;;20.20;99.90;;;;;;5382738;26;19996;-69
2024/04/12 14:00:30;;;;;;;7.97;5.65;;;20.20;99.90;;;;;;5382698;26;19999;-70
2024/04/12 14:02:58;;;;;;;10.27;4.88;;;20.20;99.90;;;;;;5382883;26;20308;-69
2024/04/12 14:05:34;;;;;;;7.82;4.88;;;20.30;99.90;;;;;;5383305;26;19988;-70
2024/04/12 14:08:07;;;;;;;12.35;5.13;;;20.50;99.90;;;;;;5383031;26;19996;-70
2024/04/12 14:10:34;;;;;;;;;;;20.40;99.90;;;;;;5383781;26;20003;-70